Terminal Aerodrome Forecast
Issued by NWS Salt Lake City, UT

Current Version | Previous Version | Text Only | Print | Product List | Glossary On
Versions: 1 2 3 4 5 6 7 8 9 10 11 12 13 14 15 16 17 18 19 20 21 22 23 24 25 26 27 28
000
FTUS45 KSLC 262348
TAFCDC
TAF
KCDC 262348Z 2700/2724 12008KT P6SM VCSH SCT060 BKN100
     FM270300 VRB05KT P6SM SCT100
     FM271800 25007KT P6SM SCT120=

USA.gov is the U.S. government's official web portal to all federal, state and local government web resources and services.